createdAt,value
2023-01-06T00:01:13.333Z,101700.19
2023-01-06T00:03:39.984Z,101698.94
2023-01-06T00:06:13.261Z,101699.34
2023-01-06T00:08:48.459Z,101704.66
2023-01-06T00:11:15.617Z,101699.75
2023-01-06T00:13:42.216Z,101696.25
2023-01-06T00:16:11.279Z,101696.41
2023-01-06T00:18:38.196Z,101686.66
2023-01-06T00:21:05.569Z,101676.09
2023-01-06T00:23:32.796Z,101686.78
2023-01-06T00:25:59.323Z,101680.38
2023-01-06T00:28:25.759Z,101696.78
2023-01-06T00:30:52.520Z,101689.31
2023-01-06T00:33:21.565Z,101694.84
2023-01-06T00:35:50.783Z,101683.75
2023-01-06T00:38:20.189Z,101689.69
2023-01-06T00:40:49.200Z,101685.03
2023-01-06T00:43:15.619Z,101684.34
2023-01-06T00:45:42.106Z,101692.16
2023-01-06T00:48:08.700Z,101687.47
2023-01-06T00:50:35.744Z,101693.84
2023-01-06T00:53:05.598Z,101690.63
2023-01-06T00:55:31.996Z,101683.28
2023-01-06T00:57:58.463Z,101686.69
2023-01-06T01:00:24.882Z,101688.38
2023-01-06T01:02:52.364Z,101687.25
2023-01-06T01:05:18.782Z,101678.59
2023-01-06T01:07:51.163Z,101676.63
2023-01-06T01:10:17.639Z,101676.81
2023-01-06T01:12:44.033Z,101678.06
2023-01-06T01:15:11.007Z,101668.69
2023-01-06T01:17:43.784Z,101677.38
2023-01-06T01:20:10.626Z,101669.47
2023-01-06T01:22:37.004Z,101673.03
2023-01-06T01:25:03.463Z,101657.75
2023-01-06T01:27:29.876Z,101658.03
2023-01-06T01:29:56.270Z,101654.19
2023-01-06T01:32:28.304Z,101660.72
2023-01-06T01:34:54.758Z,101655.09
2023-01-06T01:37:21.169Z,101661.47
2023-01-06T01:39:49.100Z,101659.50
2023-01-06T01:42:18.376Z,101648.13
2023-01-06T01:44:55.077Z,101639.84
2023-01-06T01:47:27.261Z,101645.63
2023-01-06T01:49:57.427Z,101653.13
2023-01-06T01:52:25.574Z,101644.94
2023-01-06T01:54:53.965Z,101647.31
2023-01-06T01:57:30.391Z,101642.31
2023-01-06T01:59:58.191Z,101644.03
2023-01-06T02:02:24.947Z,101644.03
2023-01-06T02:04:54.159Z,101639.78
2023-01-06T02:07:25.112Z,101635.72
2023-01-06T02:10:17.713Z,101632.94
2023-01-06T02:12:47.296Z,101622.13
2023-01-06T02:15:20.141Z,101621.66
2023-01-06T02:18:28.447Z,101616.50
2023-01-06T02:21:09.527Z,101610.94
2023-01-06T02:23:56.719Z,101605.63
2023-01-06T02:26:58.441Z,101614.66
2023-01-06T02:30:06.574Z,101606.88
2023-01-06T02:33:17.781Z,101610.44
2023-01-06T02:35:50.248Z,101610.19
2023-01-06T02:38:42.912Z,101607.88
2023-01-06T02:41:13.115Z,101591.44
2023-01-06T02:44:03.227Z,101583.41
2023-01-06T02:46:52.017Z,101592.59
2023-01-06T02:49:34.169Z,101594.84
2023-01-06T02:52:14.063Z,101590.44
2023-01-06T02:54:55.879Z,101592.28
2023-01-06T02:57:45.513Z,101585.41
2023-01-06T03:00:27.233Z,101595.47
2023-01-06T03:02:58.770Z,101593.53
2023-01-06T03:05:27.011Z,101590.31
2023-01-06T03:07:55.291Z,101585.84
2023-01-06T03:10:31.479Z,101586.13
2023-01-06T03:13:06.972Z,101568.69
2023-01-06T03:15:35.169Z,101565.53
2023-01-06T03:18:01.908Z,101563.16
2023-01-06T03:20:31.050Z,101559.22
2023-01-06T03:23:00.807Z,101551.03
2023-01-06T03:25:27.264Z,101556.53
2023-01-06T03:27:55.019Z,101550.34
2023-01-06T03:30:26.462Z,101551.88
2023-01-06T03:33:10.170Z,101554.13
2023-01-06T03:35:46.887Z,101551.59
2023-01-06T03:38:30.112Z,101539.50
2023-01-06T03:41:17.635Z,101541.41
2023-01-06T03:43:52.961Z,101538.47
2023-01-06T03:46:28.198Z,101531.47
2023-01-06T03:49:14.284Z,101515.16
2023-01-06T03:51:56.294Z,101516.94
2023-01-06T03:54:54.937Z,101523.44
2023-01-06T03:57:28.025Z,101526.28
2023-01-06T04:00:06.864Z,101519.13
2023-01-06T04:02:41.383Z,101515.53
2023-01-06T04:05:14.857Z,101514.66
2023-01-06T04:07:47.044Z,101515.97
2023-01-06T04:10:17.106Z,101510.00
2023-01-06T04:12:43.956Z,101506.22
2023-01-06T04:15:19.817Z,101511.03
2023-01-06T04:17:48.399Z,101505.00
2023-01-06T04:20:18.545Z,101498.88
2023-01-06T04:22:45.622Z,101498.22
2023-01-06T04:25:21.621Z,101500.38
2023-01-06T04:27:48.185Z,101506.78
2023-01-06T04:30:14.985Z,101493.81
2023-01-06T04:32:44.907Z,101496.78
2023-01-06T04:35:13.921Z,101486.78
2023-01-06T04:37:40.511Z,101484.22
2023-01-06T04:40:07.739Z,101481.56
2023-01-06T04:42:54.298Z,101474.22
2023-01-06T04:45:20.970Z,101463.22
2023-01-06T04:47:47.469Z,101459.50
2023-01-06T04:50:14.012Z,101457.69
2023-01-06T04:52:40.466Z,101442.97
2023-01-06T04:55:07.088Z,101441.03
2023-01-06T04:57:33.508Z,101432.22
2023-01-06T04:59:59.925Z,101435.47
2023-01-06T05:02:26.317Z,101427.47
2023-01-06T05:04:52.724Z,101421.81
2023-01-06T05:07:19.110Z,101436.31
2023-01-06T05:09:45.499Z,101423.88
2023-01-06T05:12:14.997Z,101429.94
2023-01-06T05:14:41.380Z,101437.28
2023-01-06T05:17:07.775Z,101427.84
2023-01-06T05:19:36.834Z,101422.44
2023-01-06T05:22:03.230Z,101420.84
2023-01-06T05:24:29.640Z,101417.72
2023-01-06T05:26:56.133Z,101410.13
2023-01-06T05:29:23.347Z,101411.09
2023-01-06T05:31:49.793Z,101415.44
2023-01-06T05:34:16.265Z,101410.84
2023-01-06T05:36:42.682Z,101404.22
2023-01-06T05:39:09.096Z,101409.53
2023-01-06T05:41:35.572Z,101409.44
2023-01-06T05:44:02.072Z,101403.63
2023-01-06T05:46:31.080Z,101394.09
2023-01-06T05:48:59.573Z,101403.63
2023-01-06T05:51:25.990Z,101394.47
2023-01-06T05:53:52.423Z,101396.03
2023-01-06T05:56:20.603Z,101406.31
2023-01-06T05:58:49.216Z,101407.63
2023-01-06T06:01:21.597Z,101404.03
2023-01-06T06:03:48.568Z,101398.34
2023-01-06T06:06:15.365Z,101392.06
2023-01-06T06:08:42.071Z,101378.16
2023-01-06T06:11:11.880Z,101372.63
2023-01-06T06:13:38.890Z,101366.31
2023-01-06T06:16:10.783Z,101370.91
2023-01-06T06:19:09.307Z,101373.06
2023-01-06T06:21:35.953Z,101372.22
2023-01-06T06:24:05.564Z,101375.50
2023-01-06T06:26:32.382Z,101373.09
2023-01-06T06:28:58.787Z,101368.50
2023-01-06T06:31:27.412Z,101375.16
2023-01-06T06:33:59.115Z,101371.63
2023-01-06T06:36:25.894Z,101364.88
2023-01-06T06:38:53.529Z,101366.06
2023-01-06T06:41:21.138Z,101367.28
2023-01-06T06:43:51.004Z,101361.13
2023-01-06T06:46:18.452Z,101350.59
2023-01-06T06:48:45.016Z,101351.94
2023-01-06T06:51:17.034Z,101348.81
2023-01-06T06:53:44.205Z,101347.94
2023-01-06T06:56:11.503Z,101340.69
2023-01-06T06:58:38.577Z,101341.88
2023-01-06T07:01:06.429Z,101333.56
2023-01-06T07:03:33.152Z,101327.03
2023-01-06T07:06:00.183Z,101330.66
2023-01-06T07:08:27.636Z,101319.66
2023-01-06T07:10:54.304Z,101318.91
2023-01-06T07:13:20.758Z,101336.53
2023-01-06T07:15:47.231Z,101327.34
2023-01-06T07:18:13.724Z,101327.97
2023-01-06T07:20:40.168Z,101326.03
2023-01-06T07:23:06.606Z,101337.59
2023-01-06T07:25:33.038Z,101341.13
2023-01-06T07:28:05.387Z,101341.25
2023-01-06T07:30:32.597Z,101341.47
2023-01-06T07:32:59.039Z,101339.44
2023-01-06T07:35:25.752Z,101334.59
2023-01-06T07:37:52.307Z,101338.31
2023-01-06T07:40:18.717Z,101334.44
2023-01-06T07:42:45.265Z,101334.31
2023-01-06T07:45:12.028Z,101335.38
2023-01-06T07:47:38.415Z,101340.22
2023-01-06T07:50:05.511Z,101333.31
2023-01-06T07:52:32.211Z,101336.81
2023-01-06T07:54:59.503Z,101351.56
2023-01-06T07:57:29.491Z,101341.38
2023-01-06T07:59:57.026Z,101339.31
2023-01-06T08:02:38.454Z,101333.03
2023-01-06T08:05:05.042Z,101325.28
2023-01-06T08:07:31.440Z,101305.53
2023-01-06T08:09:57.835Z,101318.13
2023-01-06T08:12:24.209Z,101319.91
2023-01-06T08:14:50.612Z,101314.81
2023-01-06T08:17:17.049Z,101321.44
2023-01-06T08:19:43.464Z,101312.75
2023-01-06T08:22:09.873Z,101298.94
2023-01-06T08:24:36.356Z,101289.47
2023-01-06T08:27:08.728Z,101278.94
2023-01-06T08:29:35.153Z,101292.59
2023-01-06T08:32:10.482Z,101300.19
2023-01-06T08:34:37.569Z,101300.53
2023-01-06T08:37:04.000Z,101296.81
2023-01-06T08:39:30.548Z,101282.38
2023-01-06T08:42:02.780Z,101287.94
2023-01-06T08:44:29.245Z,101283.22
2023-01-06T08:46:55.631Z,101280.81
2023-01-06T08:49:22.035Z,101278.94
2023-01-06T08:51:48.427Z,101280.81
2023-01-06T08:54:14.876Z,101275.31
2023-01-06T08:56:43.360Z,101269.66
2023-01-06T08:59:13.380Z,101280.63
2023-01-06T09:01:39.979Z,101265.44
2023-01-06T09:04:08.290Z,101266.19
2023-01-06T09:06:35.105Z,101277.75
2023-01-06T09:09:02.375Z,101288.41
2023-01-06T09:11:28.928Z,101289.06
2023-01-06T09:13:55.318Z,101285.22
2023-01-06T09:16:22.338Z,101274.06
2023-01-06T09:18:50.240Z,101282.47
2023-01-06T09:21:18.681Z,101274.06
2023-01-06T09:23:45.647Z,101264.81
2023-01-06T09:26:12.266Z,101260.34
2023-01-06T09:28:39.260Z,101271.81
2023-01-06T09:31:11.810Z,101271.00
2023-01-06T09:33:38.379Z,101252.41
2023-01-06T09:36:05.130Z,101250.44
2023-01-06T09:38:31.539Z,101244.44
2023-01-06T09:41:25.503Z,101244.50
2023-01-06T09:44:06.139Z,101249.00
2023-01-06T09:46:37.306Z,101248.06
2023-01-06T09:49:15.826Z,101233.34
2023-01-06T09:51:43.503Z,101232.81
2023-01-06T09:54:17.990Z,101218.03
2023-01-06T09:56:49.099Z,101222.84
2023-01-06T09:59:28.170Z,101213.19
2023-01-06T10:01:59.570Z,101216.31
2023-01-06T10:04:28.871Z,101207.94
2023-01-06T10:07:09.334Z,101203.56
2023-01-06T10:10:26.240Z,101205.53
2023-01-06T10:12:58.548Z,101205.59
2023-01-06T10:15:47.823Z,101188.38
2023-01-06T10:18:32.474Z,101190.34
2023-01-06T10:21:10.345Z,101178.41
2023-01-06T10:24:01.654Z,101194.31
2023-01-06T10:26:32.217Z,101175.63
2023-01-06T10:29:11.734Z,101169.28
2023-01-06T10:31:42.086Z,101167.38
2023-01-06T10:34:19.155Z,101154.06
2023-01-06T10:36:48.317Z,101152.16
2023-01-06T10:39:18.187Z,101151.72
2023-01-06T10:41:56.605Z,101147.00
2023-01-06T10:44:23.052Z,101154.25
2023-01-06T10:46:50.025Z,101149.03
2023-01-06T10:49:19.376Z,101148.78
2023-01-06T10:51:52.811Z,101148.19
2023-01-06T10:54:24.790Z,101151.38
2023-01-06T10:57:00.068Z,101150.47
2023-01-06T10:59:26.479Z,101151.63
2023-01-06T11:01:56.985Z,101143.81
2023-01-06T11:04:30.158Z,101144.09
2023-01-06T11:07:01.993Z,101138.72
2023-01-06T11:09:39.363Z,101144.34
2023-01-06T11:12:13.240Z,101135.41
2023-01-06T11:14:43.714Z,101127.63
2023-01-06T11:17:15.604Z,101120.72
2023-01-06T11:19:45.194Z,101121.25
2023-01-06T11:22:32.349Z,101117.63
2023-01-06T11:24:58.980Z,101127.16
2023-01-06T11:27:25.528Z,101117.66
2023-01-06T11:29:51.921Z,101102.31
2023-01-06T11:32:27.905Z,101112.66
2023-01-06T11:35:00.621Z,101117.13
2023-01-06T11:37:36.951Z,101112.16
2023-01-06T11:40:22.308Z,101112.38
2023-01-06T11:42:52.933Z,101115.50
2023-01-06T11:45:39.785Z,101118.31
2023-01-06T11:48:19.568Z,101098.47
2023-01-06T11:50:54.018Z,101099.28
2023-01-06T11:53:21.560Z,101104.91
2023-01-06T11:56:17.916Z,101102.13
2023-01-06T11:59:06.600Z,101087.09
2023-01-06T12:01:47.919Z,101093.25
2023-01-06T12:04:26.691Z,101098.28
2023-01-06T12:07:01.726Z,101092.38
2023-01-06T12:09:39.733Z,101087.66
2023-01-06T12:12:09.872Z,101091.63
2023-01-06T12:14:38.523Z,101091.38
2023-01-06T12:17:36.298Z,101087.44
2023-01-06T12:20:14.644Z,101084.06
2023-01-06T12:22:51.271Z,101070.97
2023-01-06T12:25:35.003Z,101072.91
2023-01-06T12:28:09.821Z,101078.53
2023-01-06T12:30:55.009Z,101071.56
2023-01-06T12:33:36.886Z,101058.69
2023-01-06T12:36:22.321Z,101058.72
2023-01-06T12:38:56.701Z,101063.22
2023-01-06T12:41:37.802Z,101055.66
2023-01-06T12:44:19.640Z,101059.59
2023-01-06T12:47:17.191Z,101060.41
2023-01-06T12:49:52.458Z,101049.22
2023-01-06T12:52:25.771Z,101052.84
2023-01-06T12:54:57.902Z,101052.03
2023-01-06T12:57:48.946Z,101056.81
2023-01-06T13:00:39.603Z,101056.53
2023-01-06T13:03:25.247Z,101057.38
2023-01-06T13:06:06.339Z,101059.03
2023-01-06T13:08:52.614Z,101052.31
2023-01-06T13:11:18.961Z,101056.53
2023-01-06T13:14:04.267Z,101060.16
2023-01-06T13:16:55.618Z,101058.50
2023-01-06T13:19:51.168Z,101064.66
2023-01-06T13:22:53.332Z,101060.16
2023-01-06T13:25:29.900Z,101069.97
2023-01-06T13:28:25.068Z,101063.25
2023-01-06T13:31:23.265Z,101057.09
2023-01-06T13:34:20.441Z,101071.38
2023-01-06T13:37:34.422Z,101081.75
2023-01-06T13:40:08.599Z,101078.66
2023-01-06T13:42:47.131Z,101082.59
2023-01-06T13:45:24.945Z,101084.81
2023-01-06T13:47:51.919Z,101087.88
2023-01-06T13:50:20.348Z,101096.84
2023-01-06T13:52:47.482Z,101099.09
2023-01-06T13:55:19.628Z,101094.06
2023-01-06T13:57:46.310Z,101098.53
2023-01-06T14:00:25.217Z,101103.00
2023-01-06T14:02:51.689Z,101096.56
2023-01-06T14:05:21.378Z,101102.16
2023-01-06T14:08:02.814Z,101108.34
2023-01-06T14:10:33.442Z,101111.97
2023-01-06T14:13:01.963Z,101107.75
2023-01-06T14:15:34.458Z,101109.72
2023-01-06T14:18:02.449Z,101114.19
2023-01-06T14:22:29.843Z,101113.94
2023-01-06T14:25:06.462Z,101123.72
2023-01-06T14:27:47.567Z,101127.38
2023-01-06T14:30:33.702Z,101130.72
2023-01-06T14:33:04.315Z,101136.56
2023-01-06T14:35:35.564Z,101142.75
2023-01-06T14:38:06.311Z,101153.38
2023-01-06T14:40:37.754Z,101148.09
2023-01-06T14:43:26.485Z,101144.72
2023-01-06T14:45:53.938Z,101143.28
2023-01-06T14:48:24.641Z,101140.22
2023-01-06T14:50:56.336Z,101144.72
2023-01-06T14:53:31.824Z,101148.34
2023-01-06T14:56:00.166Z,101149.75
2023-01-06T14:58:36.970Z,101148.34
2023-01-06T15:01:28.983Z,101155.59
2023-01-06T15:03:58.983Z,101158.41
2023-01-06T15:06:27.472Z,101162.91
2023-01-06T15:08:54.093Z,101164.88
2023-01-06T15:11:25.913Z,101161.81
2023-01-06T15:13:52.518Z,101164.00
2023-01-06T15:16:31.104Z,101171.03
2023-01-06T15:18:58.819Z,101171.59
2023-01-06T15:21:25.664Z,101168.75
2023-01-06T15:23:53.630Z,101177.19
2023-01-06T15:26:30.843Z,101177.16
2023-01-06T15:29:03.219Z,101185.53
2023-01-06T15:31:33.684Z,101185.25
2023-01-06T15:34:04.977Z,101196.44
2023-01-06T15:36:32.406Z,101190.56
2023-01-06T15:39:02.664Z,101207.06
2023-01-06T15:41:33.451Z,101202.03
2023-01-06T15:44:01.888Z,101209.88
2023-01-06T15:46:39.480Z,101216.03
2023-01-06T15:49:36.498Z,101217.44
2023-01-06T15:52:14.879Z,101222.22
2023-01-06T15:54:44.392Z,101226.13
2023-01-06T15:57:16.899Z,101223.06
2023-01-06T16:00:15.416Z,101226.66
2023-01-06T16:02:41.839Z,101229.75
2023-01-06T16:05:32.019Z,101236.16
2023-01-06T16:08:14.231Z,101238.69
2023-01-06T16:10:40.837Z,101230.31
2023-01-06T16:13:09.947Z,101232.25
2023-01-06T16:15:58.509Z,101224.38
2023-01-06T16:18:38.308Z,101227.50
2023-01-06T16:21:19.608Z,101234.75
2023-01-06T16:23:51.422Z,101244.31
2023-01-06T16:26:20.566Z,101243.47
2023-01-06T16:28:50.973Z,101255.53
2023-01-06T16:31:33.723Z,101251.84
2023-01-06T16:34:24.967Z,101248.75
2023-01-06T16:36:53.584Z,101252.09
2023-01-06T16:39:20.940Z,101250.97
2023-01-06T16:41:59.547Z,101245.06
2023-01-06T16:44:31.039Z,101252.91
2023-01-06T16:46:58.685Z,101259.31
2023-01-06T16:49:25.242Z,101265.75
2023-01-06T16:51:52.182Z,101257.41
2023-01-06T16:54:18.711Z,101265.22
2023-01-06T16:56:46.580Z,101264.41
2023-01-06T16:59:16.003Z,101273.59
2023-01-06T17:01:44.052Z,101274.44
2023-01-06T17:04:11.945Z,101273.03
2023-01-06T17:06:39.905Z,101274.97
2023-01-06T17:09:19.239Z,101284.78
2023-01-06T17:11:47.175Z,101285.31
2023-01-06T17:14:15.464Z,101295.06
2023-01-06T17:16:45.107Z,101301.47
2023-01-06T17:19:25.176Z,101307.69
2023-01-06T17:21:58.987Z,101300.97
2023-01-06T17:24:26.080Z,101310.22
2023-01-06T17:27:05.937Z,101314.09
2023-01-06T17:29:36.016Z,101314.97
2023-01-06T17:32:05.628Z,101308.44
2023-01-06T17:34:36.713Z,101318.25
2023-01-06T17:37:14.849Z,101324.34
2023-01-06T17:39:47.359Z,101329.38
2023-01-06T17:42:16.423Z,101324.94
2023-01-06T17:44:53.880Z,101330.53
2023-01-06T17:47:20.265Z,101324.94
2023-01-06T17:49:59.382Z,101331.91
2023-01-06T17:52:36.546Z,101346.19
2023-01-06T17:55:44.359Z,101338.66
2023-01-06T17:58:19.141Z,101350.06
2023-01-06T18:00:46.140Z,101348.69
2023-01-06T18:03:19.657Z,101340.63
2023-01-06T18:05:46.034Z,101345.38
2023-01-06T18:08:14.954Z,101349.78
2023-01-06T18:11:10.434Z,101353.41
2023-01-06T18:13:39.780Z,101349.47
2023-01-06T18:16:21.723Z,101355.66
2023-01-06T18:18:57.654Z,101353.84
2023-01-06T18:21:34.508Z,101362.56
2023-01-06T18:24:12.975Z,101354.22
2023-01-06T18:26:45.956Z,101363.91
2023-01-06T18:29:23.337Z,101362.75
2023-01-06T18:31:52.135Z,101364.47
2023-01-06T18:34:47.862Z,101367.75
2023-01-06T18:37:14.522Z,101360.97
2023-01-06T18:39:45.734Z,101359.34
2023-01-06T18:42:41.132Z,101359.00
2023-01-06T18:45:07.471Z,101343.38
2023-01-06T18:47:36.565Z,101352.88
2023-01-06T18:50:26.837Z,101358.13
2023-01-06T18:52:54.609Z,101362.59
2023-01-06T18:55:45.284Z,101361.25
2023-01-06T18:58:11.612Z,101368.47
2023-01-06T19:00:41.064Z,101367.06
2023-01-06T19:03:19.464Z,101366.53
2023-01-06T19:05:48.735Z,101373.22
2023-01-06T19:08:19.674Z,101370.38
2023-01-06T19:10:52.267Z,101370.91
2023-01-06T19:13:23.061Z,101380.94
2023-01-06T19:15:49.462Z,101383.41
2023-01-06T19:18:17.317Z,101392.00
2023-01-06T19:20:45.820Z,101393.28
2023-01-06T19:23:19.659Z,101400.50
2023-01-06T19:25:48.494Z,101397.13
2023-01-06T19:28:30.123Z,101404.88
2023-01-06T19:30:58.687Z,101400.13
2023-01-06T19:33:36.966Z,101401.19
2023-01-06T19:36:06.428Z,101409.19
2023-01-06T19:38:41.152Z,101411.44
2023-01-06T19:41:17.352Z,101411.06
2023-01-06T19:43:46.818Z,101412.50
2023-01-06T19:46:21.314Z,101404.38
2023-01-06T19:48:48.223Z,101413.03
2023-01-06T19:51:20.574Z,101410.84
2023-01-06T19:54:12.541Z,101411.38
2023-01-06T19:56:41.799Z,101411.53
2023-01-06T19:59:21.998Z,101412.44
2023-01-06T20:02:07.001Z,101418.78
2023-01-06T20:04:34.121Z,101419.59
2023-01-06T20:07:02.140Z,101419.06
2023-01-06T20:09:30.536Z,101423.00
2023-01-06T20:11:57.782Z,101422.41
2023-01-06T20:14:24.197Z,101422.31
2023-01-06T20:16:50.653Z,101425.97
2023-01-06T20:19:17.176Z,101426.81
2023-01-06T20:21:43.727Z,101425.34
2023-01-06T20:24:11.247Z,101425.66
2023-01-06T20:26:37.877Z,101430.94
2023-01-06T20:29:07.191Z,101435.63
2023-01-06T20:31:33.598Z,101424.97
2023-01-06T20:34:00.027Z,101429.97
2023-01-06T20:36:26.860Z,101425.25
2023-01-06T20:38:53.292Z,101427.66
2023-01-06T20:41:19.773Z,101425.44
2023-01-06T20:43:46.206Z,101427.06
2023-01-06T20:46:14.452Z,101430.91
2023-01-06T20:48:41.210Z,101439.28
2023-01-06T20:51:08.211Z,101444.59
2023-01-06T20:53:34.661Z,101434.19
2023-01-06T20:56:01.190Z,101440.03
2023-01-06T20:58:27.619Z,101442.50
2023-01-06T21:00:54.085Z,101442.56
2023-01-06T21:03:20.600Z,101444.88
2023-01-06T21:05:46.987Z,101449.03
2023-01-06T21:08:13.984Z,101442.28
2023-01-06T21:10:40.379Z,101448.69
2023-01-06T21:13:09.388Z,101444.47
2023-01-06T21:15:35.795Z,101448.03
2023-01-06T21:18:02.197Z,101441.94
2023-01-06T21:20:29.020Z,101448.88
2023-01-06T21:22:55.487Z,101444.47
2023-01-06T21:25:27.760Z,101448.19
2023-01-06T21:27:54.173Z,101451.25
2023-01-06T21:30:20.592Z,101449.53
2023-01-06T21:32:47.012Z,101456.47
2023-01-06T21:35:16.396Z,101459.59
2023-01-06T21:37:42.809Z,101447.44
2023-01-06T21:40:09.745Z,101444.47
2023-01-06T21:42:54.896Z,101451.16
2023-01-06T21:45:21.331Z,101451.47
2023-01-06T21:47:47.926Z,101457.84
2023-01-06T21:50:17.386Z,101454.28
2023-01-06T21:52:46.444Z,101458.31
2023-01-06T21:55:13.021Z,101455.53
2023-01-06T21:57:39.638Z,101455.06
2023-01-06T22:00:16.600Z,101460.56
2023-01-06T22:02:45.284Z,101453.63
2023-01-06T22:05:11.948Z,101461.91
2023-01-06T22:07:42.797Z,101459.19
2023-01-06T22:10:17.769Z,101458.69
2023-01-06T22:12:46.875Z,101460.97
2023-01-06T22:15:14.000Z,101469.94
2023-01-06T22:17:40.762Z,101464.44
2023-01-06T22:20:07.966Z,101467.81
2023-01-06T22:22:35.457Z,101464.84
2023-01-06T22:25:05.947Z,101460.97
2023-01-06T22:27:34.931Z,101463.94
2023-01-06T22:30:01.341Z,101472.66
2023-01-06T22:32:55.415Z,101467.31
2023-01-06T22:35:22.114Z,101470.34
2023-01-06T22:37:59.184Z,101472.28
2023-01-06T22:40:26.351Z,101476.94
2023-01-06T22:42:52.992Z,101470.84
2023-01-06T22:45:19.637Z,101475.59
2023-01-06T22:47:46.311Z,101474.84
2023-01-06T22:50:12.831Z,101471.38
2023-01-06T22:52:39.232Z,101476.94
2023-01-06T22:55:12.241Z,101467.50
2023-01-06T22:57:41.671Z,101467.50
2023-01-06T23:00:14.705Z,101465.69
2023-01-06T23:02:41.883Z,101461.81
2023-01-06T23:05:08.914Z,101465.13
2023-01-06T23:07:42.468Z,101474.66
2023-01-06T23:10:10.944Z,101466.28
2023-01-06T23:12:39.258Z,101473.22
2023-01-06T23:15:07.189Z,101461.00
2023-01-06T23:17:35.523Z,101463.41
2023-01-06T23:20:09.836Z,101457.31
2023-01-06T23:22:43.131Z,101453.78
2023-01-06T23:25:09.637Z,101447.81
2023-01-06T23:27:39.106Z,101446.13
2023-01-06T23:30:06.579Z,101456.66
2023-01-06T23:32:32.952Z,101455.97
2023-01-06T23:34:59.953Z,101455.88
2023-01-06T23:37:26.349Z,101461.72
2023-01-06T23:40:01.540Z,101465.56
2023-01-06T23:42:34.467Z,101453.25
2023-01-06T23:45:03.844Z,101468.53
2023-01-06T23:47:30.242Z,101470.13
2023-01-06T23:49:59.781Z,101466.25
2023-01-06T23:52:35.184Z,101471.78
2023-01-06T23:55:01.596Z,101471.81
2023-01-06T23:57:28.059Z,101473.78
2023-01-06T23:59:54.456Z,101469.78
